Hovedside
METAR-TAF:

METAR-TAF

Lufthavner :

Wales, Alaska, USA

breddegrad: 65-37-21N, lengdegrad: 168-05-42W, høyde over havet: 7 m

Gjeldene værobservasjon

Denne rapporten ble laget for 28 minutter siden, klokken 16:56 UTC
Vind 16 kt fra Øst-sørøst
Temperatur -3°C
Luftfuktighet 93%
Trykk 998 hPa
Sikt: 16.1 km
Få skyer i en høyde av 800 ft
Overskyet i en høyde av 7000 ft

METAR: PAIW 231656Z AUTO 12016KT 10SM FEW008 OVC070 M03/M04 A2946 RMK AO2 UPB06E12SNE06 SLP976 P0000 T10281039 FZRANO

Tid: 08:24 (17:24 UTC)


TAF: fraværende

Værobservasjoner og værvarsel for over 4000 flyplasser (METAR- og TAF-rapporter).

Tilgjengelige stasjoner er representert av de røde og gule prikkene på kartet.

Hold musepekeren over prikken for å se navnet på stasjonen.

Klikk så for å se værobservasjoner og -varsler.

For å forandre kartet kan du klikke på den grønne knappen med svart kryss for å zoome inn, på den grønne knappen med strek for å zoome ut, eller på de grønne pilene for å se tilstøtende kart.


METAR-TAF: